createdAt,value
2018-03-02T00:00:03.055Z,46.21
2018-03-02T00:01:03.056Z,46.69
2018-03-02T00:02:24.043Z,46.69
2018-03-02T00:03:03.008Z,46.78
2018-03-02T00:04:03.023Z,46.88
2018-03-02T00:05:03.011Z,46.88
2018-03-02T00:06:02.993Z,46.78
2018-03-02T00:07:02.982Z,46.78
2018-03-02T00:08:23.961Z,46.88
2018-03-02T00:09:02.964Z,46.88
2018-03-02T00:10:02.976Z,46.78
2018-03-02T00:11:02.937Z,47.34
2018-03-02T00:12:02.918Z,47.44
2018-03-02T00:13:02.920Z,47.53
2018-03-02T00:14:23.897Z,47.53
2018-03-02T00:15:02.884Z,47.53
2018-03-02T00:16:02.876Z,47.80
2018-03-02T00:17:02.883Z,47.80
2018-03-02T00:18:02.843Z,47.32
2018-03-02T00:19:02.832Z,47.80
2018-03-02T00:20:23.825Z,47.82
2018-03-02T00:21:02.817Z,47.70
2018-03-02T00:22:02.805Z,47.42
2018-03-02T00:23:02.822Z,47.89
2018-03-02T00:24:02.780Z,47.99
2018-03-02T00:25:02.766Z,47.70
2018-03-02T00:26:23.760Z,47.70
2018-03-02T00:27:02.738Z,47.89
2018-03-02T00:28:02.722Z,47.61
2018-03-02T00:29:02.710Z,47.51
2018-03-02T00:30:02.701Z,47.82
2018-03-02T00:31:02.693Z,47.51
2018-03-02T00:32:23.695Z,48.08
2018-03-02T00:33:03.604Z,48.08
2018-03-02T00:34:02.653Z,48.65
2018-03-02T00:35:02.642Z,48.18
2018-03-02T00:36:02.632Z,48.08
2018-03-02T00:37:02.624Z,48.83
2018-03-02T00:38:23.611Z,48.83
2018-03-02T00:39:02.581Z,48.65
2018-03-02T00:40:02.611Z,48.74
2018-03-02T00:41:03.805Z,48.83
2018-03-02T00:42:02.562Z,48.83
2018-03-02T00:43:02.553Z,48.83
2018-03-02T00:44:23.530Z,48.83
2018-03-02T00:45:02.513Z,48.74
2018-03-02T00:46:02.531Z,48.93
2018-03-02T00:47:02.507Z,49.02
2018-03-02T00:48:03.686Z,48.93
2018-03-02T00:49:02.469Z,49.02
2018-03-02T00:50:23.468Z,49.02
2018-03-02T00:51:02.465Z,49.11
2018-03-02T00:52:02.464Z,49.02
2018-03-02T00:53:02.430Z,49.02
2018-03-02T00:54:02.406Z,49.02
2018-03-02T00:55:02.400Z,49.02
2018-03-02T00:56:23.395Z,49.30
2018-03-02T00:57:02.402Z,49.40
2018-03-02T00:58:02.369Z,49.40
2018-03-02T00:59:02.357Z,50.16
2018-03-02T01:00:02.330Z,49.59
2018-03-02T01:01:02.326Z,49.49
2018-03-02T01:02:23.315Z,50.25
2018-03-02T01:03:02.306Z,49.49
2018-03-02T01:04:02.301Z,49.59
2018-03-02T01:05:02.266Z,49.59
2018-03-02T01:06:02.271Z,49.59
2018-03-02T01:07:02.251Z,50.06
2018-03-02T01:08:23.251Z,50.25
2018-03-02T01:09:02.232Z,49.68
2018-03-02T01:10:02.214Z,50.53
2018-03-02T01:11:02.203Z,50.25
2018-03-02T01:12:02.214Z,50.53
2018-03-02T01:13:02.177Z,50.44
2018-03-02T01:14:23.170Z,50.44
2018-03-02T01:15:02.157Z,50.35
2018-03-02T01:16:02.132Z,50.25
2018-03-02T01:17:02.137Z,50.63
2018-03-02T01:18:02.109Z,50.63
2018-03-02T01:19:02.106Z,50.44
2018-03-02T01:20:23.097Z,50.44
2018-03-02T01:21:02.081Z,50.63
2018-03-02T01:22:02.075Z,50.72
2018-03-02T01:23:02.054Z,50.82
2018-03-02T01:24:02.036Z,50.72
2018-03-02T01:25:03.265Z,50.72
2018-03-02T01:26:23.016Z,50.82
2018-03-02T01:27:02.003Z,51.20
2018-03-02T01:28:01.987Z,51.20
2018-03-02T01:29:01.985Z,51.20
2018-03-02T01:30:01.974Z,52.33
2018-03-02T01:31:01.958Z,51.95
2018-03-02T01:32:22.958Z,51.95
2018-03-02T01:33:01.947Z,52.04
2018-03-02T01:34:01.929Z,52.02
2018-03-02T01:35:01.916Z,51.86
2018-03-02T01:36:01.893Z,52.02
2018-03-02T01:37:01.882Z,52.02
2018-03-02T01:38:22.866Z,51.92
2018-03-02T01:39:01.876Z,52.30
2018-03-02T01:40:01.860Z,52.21
2018-03-02T01:41:01.837Z,52.02
2018-03-02T01:42:01.838Z,52.40
2018-03-02T01:43:01.806Z,52.21
2018-03-02T01:44:22.811Z,52.78
2018-03-02T01:45:01.793Z,52.21
2018-03-02T01:46:01.762Z,52.59
2018-03-02T01:47:01.763Z,52.59
2018-03-02T01:48:01.745Z,52.40
2018-03-02T01:49:01.739Z,52.68
2018-03-02T01:50:22.728Z,52.68
2018-03-02T01:51:01.708Z,52.21
2018-03-02T01:52:01.699Z,52.49
2018-03-02T01:53:01.680Z,52.78
2018-03-02T01:54:01.674Z,52.21
2018-03-02T01:55:01.657Z,52.59
2018-03-02T01:56:22.659Z,52.49
2018-03-02T01:57:01.639Z,52.59
2018-03-02T01:58:01.617Z,52.68
2018-03-02T01:59:01.619Z,52.87
2018-03-02T02:00:01.701Z,52.21
2018-03-02T02:01:01.583Z,52.87
2018-03-02T02:02:22.588Z,52.59
2018-03-02T02:03:01.561Z,52.87
2018-03-02T02:04:01.553Z,53.63
2018-03-02T02:05:01.543Z,53.34
2018-03-02T02:06:01.522Z,53.63
2018-03-02T02:07:01.508Z,52.87
2018-03-02T02:08:22.501Z,53.53
2018-03-02T02:09:01.487Z,53.34
2018-03-02T02:10:01.487Z,53.25
2018-03-02T02:11:02.248Z,52.96
2018-03-02T02:12:01.448Z,52.87
2018-03-02T02:13:01.446Z,52.96
2018-03-02T02:14:22.444Z,53.53
2018-03-02T02:15:02.392Z,53.34
2018-03-02T02:16:01.402Z,53.34
2018-03-02T02:17:01.411Z,53.25
2018-03-02T02:18:01.375Z,53.15
2018-03-02T02:19:01.376Z,53.34
2018-03-02T02:20:22.375Z,53.34
2018-03-02T02:21:01.375Z,53.34
2018-03-02T02:22:01.318Z,53.63
2018-03-02T02:23:01.342Z,53.34
2018-03-02T02:24:01.340Z,53.63
2018-03-02T02:25:01.299Z,53.72
2018-03-02T02:26:22.276Z,53.34
2018-03-02T02:27:01.272Z,53.81
2018-03-02T02:28:01.300Z,53.63
2018-03-02T02:29:01.306Z,53.63
2018-03-02T02:30:01.280Z,53.63
2018-03-02T02:31:01.290Z,53.44
2018-03-02T02:32:22.227Z,53.44
2018-03-02T02:33:01.263Z,53.63
2018-03-02T02:34:01.264Z,54.28
2018-03-02T02:35:01.216Z,54.19
2018-03-02T02:36:01.175Z,53.91
2018-03-02T02:37:01.190Z,53.63
2018-03-02T02:38:22.153Z,53.81
2018-03-02T02:39:01.172Z,54.85
2018-03-02T02:40:01.204Z,54.19
2018-03-02T02:41:01.103Z,54.47
2018-03-02T02:42:01.166Z,54.66
2018-03-02T02:43:01.102Z,54.57
2018-03-02T02:44:22.076Z,54.00
2018-03-02T02:45:01.093Z,54.28
2018-03-02T02:46:01.040Z,54.38
2018-03-02T02:47:01.045Z,54.38
2018-03-02T02:48:01.047Z,53.91
2018-03-02T02:49:01.694Z,54.47
2018-03-02T02:50:21.995Z,54.28
2018-03-02T02:51:00.987Z,54.75
2018-03-02T02:52:00.977Z,54.75
2018-03-02T02:53:00.955Z,54.75
2018-03-02T02:54:00.955Z,54.66
2018-03-02T02:55:00.944Z,54.75
2018-03-02T02:56:21.919Z,54.66
2018-03-02T02:57:00.917Z,54.38
2018-03-02T02:58:00.895Z,54.57
2018-03-02T02:59:00.885Z,54.47
2018-03-02T03:00:00.865Z,55.13
2018-03-02T03:01:00.856Z,54.75
2018-03-02T03:02:21.841Z,54.57
2018-03-02T03:03:00.831Z,54.66
2018-03-02T03:04:00.819Z,54.75
2018-03-02T03:05:00.806Z,54.75
2018-03-02T03:06:00.793Z,55.13
2018-03-02T03:07:00.772Z,54.85
2018-03-02T03:08:21.762Z,55.42
2018-03-02T03:09:00.752Z,55.13
2018-03-02T03:10:00.725Z,55.42
2018-03-02T03:11:00.727Z,56.08
2018-03-02T03:12:00.716Z,55.89
2018-03-02T03:13:00.689Z,55.23
2018-03-02T03:14:21.683Z,54.85
2018-03-02T03:15:00.682Z,55.13
2018-03-02T03:16:00.659Z,55.32
2018-03-02T03:17:00.655Z,55.51
2018-03-02T03:18:00.622Z,55.32
2018-03-02T03:19:00.621Z,55.13
2018-03-02T03:20:21.619Z,55.23
2018-03-02T03:21:00.595Z,55.04
2018-03-02T03:22:00.584Z,54.85
2018-03-02T03:23:00.564Z,55.98
2018-03-02T03:24:00.553Z,55.98
2018-03-02T03:25:00.540Z,55.80
2018-03-02T03:26:21.531Z,55.32
2018-03-02T03:27:00.520Z,55.61
2018-03-02T03:28:00.512Z,55.98
2018-03-02T03:29:00.486Z,55.98
2018-03-02T03:30:00.489Z,56.08
2018-03-02T03:31:00.460Z,55.89
2018-03-02T03:32:21.456Z,55.70
2018-03-02T03:33:00.446Z,56.17
2018-03-02T03:34:00.433Z,55.51
2018-03-02T03:35:00.414Z,55.23
2018-03-02T03:36:00.407Z,55.51
2018-03-02T03:37:00.392Z,55.70
2018-03-02T03:38:21.387Z,55.70
2018-03-02T03:39:00.382Z,55.80
2018-03-02T03:40:00.358Z,55.89
2018-03-02T03:41:00.318Z,56.08
2018-03-02T03:42:00.327Z,55.98
2018-03-02T03:43:00.306Z,55.70
2018-03-02T03:44:21.300Z,55.70
2018-03-02T03:45:00.299Z,55.98
2018-03-02T03:46:00.283Z,55.98
2018-03-02T03:47:00.246Z,55.89
2018-03-02T03:48:00.261Z,55.98
2018-03-02T03:49:00.234Z,55.70
2018-03-02T03:50:21.216Z,55.89
2018-03-02T03:51:00.223Z,55.98
2018-03-02T03:52:00.191Z,55.98
2018-03-02T03:53:00.183Z,55.80
2018-03-02T03:54:00.167Z,56.08
2018-03-02T03:55:00.158Z,55.98
2018-03-02T03:56:21.149Z,56.36
2018-03-02T03:57:00.934Z,56.46
2018-03-02T03:58:00.109Z,56.27
2018-03-02T03:59:00.112Z,56.27
2018-03-02T04:00:00.128Z,56.36
2018-03-02T04:01:00.084Z,56.27
2018-03-02T04:02:21.073Z,56.46
2018-03-02T04:03:00.054Z,56.36
2018-03-02T04:04:00.038Z,56.36
2018-03-02T04:05:00.044Z,56.65
2018-03-02T04:06:00.009Z,56.74
2018-03-02T04:07:00.003Z,56.74
2018-03-02T04:08:20.986Z,57.31
2018-03-02T04:08:59.970Z,57.03
2018-03-02T04:09:59.967Z,56.74
2018-03-02T04:10:59.940Z,56.84
2018-03-02T04:11:59.941Z,56.65
2018-03-02T04:12:59.934Z,56.84
2018-03-02T04:14:20.912Z,56.46
2018-03-02T04:14:59.903Z,56.65
2018-03-02T04:15:59.893Z,56.55
2018-03-02T04:17:02.143Z,56.65
2018-03-02T04:17:59.848Z,56.74
2018-03-02T04:18:59.840Z,56.36
2018-03-02T04:20:20.832Z,56.55
2018-03-02T04:20:59.825Z,56.55
2018-03-02T04:21:59.806Z,56.55
2018-03-02T04:22:59.799Z,56.17
2018-03-02T04:23:59.783Z,56.65
2018-03-02T04:24:59.764Z,56.46
2018-03-02T04:26:20.765Z,56.93
2018-03-02T04:26:59.748Z,56.74
2018-03-02T04:27:59.734Z,57.12
2018-03-02T04:28:59.708Z,57.68
2018-03-02T04:29:59.704Z,57.03
2018-03-02T04:30:59.696Z,57.03
2018-03-02T04:32:20.684Z,56.93
2018-03-02T04:32:59.668Z,57.03
2018-03-02T04:33:59.645Z,57.03
2018-03-02T04:34:59.648Z,57.50
2018-03-02T04:35:59.636Z,57.40
2018-03-02T04:36:59.611Z,57.21
2018-03-02T04:38:20.606Z,57.50
2018-03-02T04:38:59.599Z,57.21
2018-03-02T04:39:59.579Z,57.97
2018-03-02T04:40:59.547Z,57.97
2018-03-02T04:41:59.553Z,58.06
2018-03-02T04:42:59.534Z,57.31
2018-03-02T04:44:20.536Z,57.50
2018-03-02T04:44:59.508Z,57.40
2018-03-02T04:45:59.498Z,57.31
2018-03-02T04:46:59.471Z,57.21
2018-03-02T04:47:59.477Z,57.59
2018-03-02T04:48:59.460Z,57.31
2018-03-02T04:50:20.449Z,57.50
2018-03-02T04:50:59.462Z,57.40
2018-03-02T04:51:59.452Z,57.68
2018-03-02T04:52:59.420Z,57.68
2018-03-02T04:53:59.390Z,57.50
2018-03-02T04:54:59.396Z,57.40
2018-03-02T04:56:20.369Z,57.12
2018-03-02T04:56:59.367Z,57.40
2018-03-02T04:57:59.356Z,57.31
2018-03-02T04:58:59.321Z,57.50
2018-03-02T04:59:59.306Z,57.12
2018-03-02T05:00:59.313Z,57.21
2018-03-02T05:02:20.272Z,57.68
2018-03-02T05:02:59.276Z,57.31
2018-03-02T05:03:59.272Z,57.03
2018-03-02T05:04:59.243Z,57.59
2018-03-02T05:05:59.237Z,57.68
2018-03-02T05:06:59.228Z,57.50
2018-03-02T05:08:20.840Z,57.03
2018-03-02T05:08:59.205Z,57.68
2018-03-02T05:09:59.201Z,57.97
2018-03-02T05:10:59.172Z,58.03
2018-03-02T05:11:59.140Z,58.06
2018-03-02T05:12:59.151Z,58.03
2018-03-02T05:14:20.137Z,58.06
2018-03-02T05:14:59.945Z,57.84
2018-03-02T05:15:59.112Z,57.94
2018-03-02T05:16:59.097Z,58.06
2018-03-02T05:17:59.070Z,57.84
2018-03-02T05:18:59.065Z,57.68
2018-03-02T05:20:20.108Z,57.21
2018-03-02T05:20:59.052Z,57.40
2018-03-02T05:21:59.026Z,57.56
2018-03-02T05:22:59.018Z,57.75
2018-03-02T05:23:58.995Z,57.65
2018-03-02T05:24:59.809Z,57.94
2018-03-02T05:26:19.983Z,57.94
2018-03-02T05:26:58.959Z,57.87
2018-03-02T05:27:58.946Z,58.22
2018-03-02T05:28:58.938Z,57.87
2018-03-02T05:30:00.241Z,57.78
2018-03-02T05:30:58.919Z,57.87
2018-03-02T05:32:19.899Z,57.28
2018-03-02T05:32:58.888Z,57.56
2018-03-02T05:33:58.869Z,57.28
2018-03-02T05:34:59.722Z,57.94
2018-03-02T05:35:58.857Z,57.94
2018-03-02T05:36:58.821Z,58.03
2018-03-02T05:38:19.816Z,57.94
2018-03-02T05:38:58.804Z,58.03
2018-03-02T05:39:59.657Z,57.94
2018-03-02T05:40:58.783Z,57.94
2018-03-02T05:41:58.774Z,57.94
2018-03-02T05:42:58.760Z,58.15
2018-03-02T05:44:19.750Z,57.87
2018-03-02T05:44:58.735Z,58.03
2018-03-02T05:45:58.718Z,57.97
2018-03-02T05:46:58.707Z,57.84
2018-03-02T05:47:58.690Z,58.03
2018-03-02T05:48:58.678Z,58.69
2018-03-02T05:50:19.661Z,59.26
2018-03-02T05:50:58.648Z,59.07
2018-03-02T05:51:59.444Z,58.98
2018-03-02T05:52:58.633Z,58.41
2018-03-02T05:53:58.609Z,59.17
2018-03-02T05:54:58.588Z,59.17
2018-03-02T05:56:19.590Z,58.79
2018-03-02T05:56:58.580Z,58.79
2018-03-02T05:57:58.564Z,58.79
2018-03-02T05:58:58.545Z,59.07
2018-03-02T05:59:58.535Z,58.12
2018-03-02T06:00:58.525Z,58.03
2018-03-02T06:02:19.513Z,58.03
2018-03-02T06:02:58.502Z,58.03
2018-03-02T06:03:58.471Z,58.41
2018-03-02T06:04:58.460Z,58.88
2018-03-02T06:05:58.456Z,58.79
2018-03-02T06:06:58.438Z,58.88
2018-03-02T06:08:19.445Z,58.03
2018-03-02T06:08:58.428Z,57.94
2018-03-02T06:09:58.406Z,58.41
2018-03-02T06:10:58.399Z,58.98
2018-03-02T06:11:58.398Z,58.03
2018-03-02T06:12:58.378Z,58.31
2018-03-02T06:14:19.342Z,58.50
2018-03-02T06:14:58.342Z,58.69
2018-03-02T06:15:58.332Z,58.98
2018-03-02T06:16:58.334Z,58.60
2018-03-02T06:17:58.283Z,59.35
2018-03-02T06:18:58.302Z,58.79
2018-03-02T06:20:19.258Z,59.26
2018-03-02T06:20:58.283Z,59.26
2018-03-02T06:21:58.257Z,59.26
2018-03-02T06:22:58.233Z,58.98
2018-03-02T06:23:58.235Z,58.98
2018-03-02T06:24:58.225Z,58.69
2018-03-02T06:26:19.191Z,58.69
2018-03-02T06:26:58.191Z,58.03
2018-03-02T06:27:58.216Z,58.41
2018-03-02T06:28:58.152Z,58.88
2018-03-02T06:29:58.159Z,58.50
2018-03-02T06:30:58.141Z,59.26
2018-03-02T06:32:19.114Z,58.69
2018-03-02T06:32:58.119Z,58.98
2018-03-02T06:33:58.111Z,58.69
2018-03-02T06:34:58.137Z,58.41
2018-03-02T06:35:58.090Z,58.50
2018-03-02T06:36:58.112Z,59.26
2018-03-02T06:38:19.860Z,59.35
2018-03-02T06:38:58.082Z,58.98
2018-03-02T06:39:58.071Z,58.88
2018-03-02T06:40:58.041Z,58.88
2018-03-02T06:41:57.997Z,59.17
2018-03-02T06:42:58.032Z,58.69
2018-03-02T06:44:20.168Z,59.26
2018-03-02T06:44:58.007Z,59.26
2018-03-02T06:45:57.975Z,59.26
2018-03-02T06:46:57.961Z,59.17
2018-03-02T06:47:57.954Z,58.69
2018-03-02T06:48:57.927Z,58.88
2018-03-02T06:50:18.882Z,58.22
2018-03-02T06:50:57.890Z,58.50
2018-03-02T06:51:57.889Z,59.07
2018-03-02T06:52:57.863Z,58.88
2018-03-02T06:53:57.849Z,58.88
2018-03-02T06:54:57.810Z,58.88
2018-03-02T06:56:18.795Z,58.53
2018-03-02T06:56:57.809Z,58.22
2018-03-02T06:57:58.695Z,58.79
2018-03-02T06:58:57.768Z,58.79
2018-03-02T06:59:57.773Z,58.88
2018-03-02T07:00:57.750Z,59.07
2018-03-02T07:02:19.874Z,58.79
2018-03-02T07:02:57.706Z,58.91
2018-03-02T07:03:57.729Z,58.88
2018-03-02T07:04:57.678Z,58.88
2018-03-02T07:05:57.685Z,58.82
2018-03-02T07:06:57.645Z,58.15
2018-03-02T07:08:18.660Z,58.15
2018-03-02T07:08:57.627Z,58.44
2018-03-02T07:09:57.631Z,58.31
2018-03-02T07:10:57.611Z,58.41
2018-03-02T07:11:57.588Z,58.34
2018-03-02T07:12:59.697Z,58.31
2018-03-02T07:14:19.263Z,58.34
2018-03-02T07:14:57.574Z,58.22
2018-03-02T07:15:57.534Z,57.84
2018-03-02T07:16:58.674Z,58.25
2018-03-02T07:17:57.518Z,58.25
2018-03-02T07:18:57.509Z,58.03
2018-03-02T07:20:18.511Z,57.68
2018-03-02T07:20:57.516Z,57.68
2018-03-02T07:21:57.455Z,58.06
2018-03-02T07:22:57.457Z,57.97
2018-03-02T07:23:57.524Z,58.06
2018-03-02T07:24:57.439Z,58.34
2018-03-02T07:26:18.428Z,58.34
2018-03-02T07:26:57.420Z,57.87
2018-03-02T07:27:57.380Z,58.06
2018-03-02T07:28:57.361Z,57.87
2018-03-02T07:29:57.351Z,58.06
2018-03-02T07:30:57.344Z,57.97
2018-03-02T07:32:18.353Z,57.97
2018-03-02T07:32:57.330Z,57.97
2018-03-02T07:33:57.292Z,58.15
2018-03-02T07:34:57.292Z,57.87
2018-03-02T07:35:57.256Z,58.15
2018-03-02T07:36:57.270Z,57.97
2018-03-02T07:38:18.274Z,57.78
2018-03-02T07:38:57.230Z,57.87
2018-03-02T07:39:57.234Z,57.97
2018-03-02T07:40:57.208Z,57.97
2018-03-02T07:41:57.202Z,58.44
2018-03-02T07:42:57.177Z,58.06
2018-03-02T07:44:18.245Z,57.68
2018-03-02T07:44:57.160Z,58.06
2018-03-02T07:45:57.117Z,57.97
2018-03-02T07:46:57.133Z,57.87
2018-03-02T07:47:57.121Z,57.97
2018-03-02T07:48:57.117Z,57.87
2018-03-02T07:50:18.142Z,57.97
2018-03-02T07:50:57.211Z,57.78
2018-03-02T07:51:57.068Z,57.59
2018-03-02T07:52:57.057Z,57.21
2018-03-02T07:53:57.038Z,57.97
2018-03-02T07:54:57.032Z,57.68
2018-03-02T07:56:18.075Z,57.40
2018-03-02T07:56:57.840Z,57.97
2018-03-02T07:57:56.994Z,58.15
2018-03-02T07:58:56.974Z,57.68
2018-03-02T07:59:56.958Z,57.50
2018-03-02T08:00:56.970Z,57.87
2018-03-02T08:02:17.961Z,57.78
2018-03-02T08:02:56.913Z,57.87
2018-03-02T08:03:57.682Z,57.59
2018-03-02T08:04:56.898Z,57.21
2018-03-02T08:05:56.892Z,57.50
2018-03-02T08:06:56.879Z,57.40
2018-03-02T08:08:17.884Z,57.68
2018-03-02T08:08:56.852Z,57.31
2018-03-02T08:09:57.381Z,57.03
2018-03-02T08:10:56.819Z,57.68
2018-03-02T08:11:56.807Z,57.78
2018-03-02T08:12:56.804Z,57.78
2018-03-02T08:14:18.770Z,57.59
2018-03-02T08:14:56.749Z,57.68
2018-03-02T08:15:56.767Z,57.12
2018-03-02T08:16:56.734Z,57.21
2018-03-02T08:17:56.726Z,57.59
2018-03-02T08:18:56.724Z,57.40
2018-03-02T08:20:17.717Z,57.40
2018-03-02T08:20:56.699Z,57.03
2018-03-02T08:21:56.688Z,56.74
2018-03-02T08:22:56.672Z,56.65
2018-03-02T08:23:56.676Z,56.93
2018-03-02T08:24:56.656Z,56.74
2018-03-02T08:26:17.676Z,56.84
2018-03-02T08:26:56.627Z,56.74
2018-03-02T08:27:57.187Z,56.27
2018-03-02T08:28:56.601Z,56.65
2018-03-02T08:29:56.578Z,56.36
2018-03-02T08:30:56.575Z,56.93
2018-03-02T08:32:17.567Z,56.65
2018-03-02T08:32:56.549Z,56.17
2018-03-02T08:33:56.531Z,56.55
2018-03-02T08:34:56.518Z,56.27
2018-03-02T08:35:56.515Z,56.08
2018-03-02T08:36:56.496Z,56.46
2018-03-02T08:38:17.478Z,56.46
2018-03-02T08:38:56.461Z,56.55
2018-03-02T08:39:56.464Z,56.46
2018-03-02T08:40:56.445Z,56.08
2018-03-02T08:41:56.437Z,56.08
2018-03-02T08:42:56.461Z,55.89
2018-03-02T08:44:17.407Z,56.27
2018-03-02T08:44:56.397Z,56.55
2018-03-02T08:45:56.385Z,56.74
2018-03-02T08:46:56.360Z,56.74
2018-03-02T08:47:56.367Z,56.74
2018-03-02T08:48:56.348Z,56.46
2018-03-02T08:50:17.324Z,56.36
2018-03-02T08:50:57.223Z,56.36
2018-03-02T08:51:56.303Z,56.08
2018-03-02T08:52:56.283Z,56.08
2018-03-02T08:53:56.288Z,55.89
2018-03-02T08:54:56.264Z,56.08
2018-03-02T08:56:17.270Z,55.89
2018-03-02T08:56:56.249Z,55.23
2018-03-02T08:57:56.217Z,54.94
2018-03-02T08:58:56.222Z,55.23
2018-03-02T08:59:56.213Z,55.26
2018-03-02T09:00:56.203Z,55.23
2018-03-02T09:02:17.172Z,55.42
2018-03-02T09:02:56.163Z,55.42
2018-03-02T09:03:56.157Z,55.98
2018-03-02T09:04:56.932Z,55.42
2018-03-02T09:05:56.130Z,55.32
2018-03-02T09:06:56.127Z,55.42
2018-03-02T09:08:17.099Z,55.89
2018-03-02T09:08:56.092Z,55.70
2018-03-02T09:09:56.090Z,56.20
2018-03-02T09:10:56.069Z,55.54
2018-03-02T09:11:56.042Z,55.26
2018-03-02T09:12:56.032Z,55.26
2018-03-02T09:14:17.021Z,54.97
2018-03-02T09:14:56.017Z,54.60
2018-03-02T09:15:56.020Z,54.69
2018-03-02T09:16:56.000Z,54.79
2018-03-02T09:17:55.977Z,54.69
2018-03-02T09:18:55.958Z,54.60
2018-03-02T09:20:16.962Z,54.79
2018-03-02T09:20:55.938Z,55.16
2018-03-02T09:21:55.925Z,55.07
2018-03-02T09:22:55.918Z,55.07
2018-03-02T09:23:57.912Z,54.69
2018-03-02T09:24:55.907Z,54.69
2018-03-02T09:26:16.943Z,54.79
2018-03-02T09:26:55.869Z,54.50
2018-03-02T09:27:55.855Z,54.69
2018-03-02T09:28:55.842Z,54.69
2018-03-02T09:29:56.364Z,54.60
2018-03-02T09:30:55.813Z,54.69
2018-03-02T09:32:16.804Z,54.50
2018-03-02T09:32:55.796Z,54.50
2018-03-02T09:33:55.774Z,54.60
2018-03-02T09:34:55.764Z,55.35
2018-03-02T09:35:55.752Z,54.60
2018-03-02T09:36:55.738Z,54.60
2018-03-02T09:38:16.722Z,54.41
2018-03-02T09:38:55.723Z,54.22
2018-03-02T09:39:55.696Z,54.32
2018-03-02T09:40:55.691Z,54.41
2018-03-02T09:41:55.676Z,53.94
2018-03-02T09:42:55.663Z,53.65
2018-03-02T09:44:16.666Z,53.37
2018-03-02T09:44:55.649Z,53.84
2018-03-02T09:45:55.640Z,53.56
2018-03-02T09:46:55.611Z,53.65
2018-03-02T09:47:55.605Z,53.27
2018-03-02T09:48:55.622Z,53.18
2018-03-02T09:50:16.582Z,53.65
2018-03-02T09:50:55.569Z,53.65
2018-03-02T09:51:55.550Z,53.65
2018-03-02T09:52:55.549Z,53.75
2018-03-02T09:53:55.530Z,53.46
2018-03-02T09:54:55.514Z,53.94
2018-03-02T09:56:16.509Z,53.94
2018-03-02T09:56:55.493Z,53.65
2018-03-02T09:57:55.473Z,53.58
2018-03-02T09:58:55.459Z,53.68
2018-03-02T09:59:55.455Z,53.77
2018-03-02T10:00:55.442Z,53.77
2018-03-02T10:02:16.445Z,53.68
2018-03-02T10:02:55.429Z,53.30
2018-03-02T10:03:55.413Z,53.30
2018-03-02T10:04:55.402Z,52.45
2018-03-02T10:05:55.385Z,52.64
2018-03-02T10:06:55.382Z,52.92
2018-03-02T10:08:16.343Z,52.45
2018-03-02T10:08:55.348Z,52.73
2018-03-02T10:09:55.342Z,52.73
2018-03-02T10:10:55.322Z,52.83
2018-03-02T10:11:55.320Z,52.17
2018-03-02T10:12:55.305Z,52.36
2018-03-02T10:14:16.290Z,52.55
2018-03-02T10:14:55.283Z,52.83
2018-03-02T10:15:55.260Z,52.92
2018-03-02T10:16:55.262Z,52.26
2018-03-02T10:17:55.234Z,51.98
2018-03-02T10:18:55.232Z,52.45
2018-03-02T10:20:16.218Z,52.45
2018-03-02T10:20:55.210Z,52.64
2018-03-02T10:21:55.206Z,52.17
2018-03-02T10:22:55.182Z,51.98
2018-03-02T10:23:55.176Z,51.88
2018-03-02T10:24:56.068Z,51.98
2018-03-02T10:26:16.148Z,51.98
2018-03-02T10:26:55.113Z,51.13
2018-03-02T10:27:55.135Z,51.41
2018-03-02T10:28:55.120Z,51.13
2018-03-02T10:29:55.110Z,51.41
2018-03-02T10:30:55.088Z,51.32
2018-03-02T10:32:16.109Z,51.50
2018-03-02T10:32:55.049Z,51.60
2018-03-02T10:33:55.056Z,51.41
2018-03-02T10:34:55.045Z,50.84
2018-03-02T10:35:55.031Z,50.75
2018-03-02T10:36:55.022Z,50.75
2018-03-02T10:38:16.002Z,50.84
2018-03-02T10:38:54.992Z,50.84
2018-03-02T10:39:54.971Z,50.84
2018-03-02T10:40:54.965Z,51.13
2018-03-02T10:41:55.761Z,51.13
2018-03-02T10:42:54.942Z,51.22
2018-03-02T10:44:15.936Z,51.88
2018-03-02T10:44:54.924Z,51.69
2018-03-02T10:45:54.897Z,51.88
2018-03-02T10:46:54.888Z,51.50
2018-03-02T10:47:54.896Z,51.50
2018-03-02T10:48:54.879Z,50.65
2018-03-02T10:50:15.858Z,50.84
2018-03-02T10:50:55.766Z,50.75
2018-03-02T10:51:54.838Z,50.37
2018-03-02T10:52:54.824Z,50.46
2018-03-02T10:53:54.820Z,50.37
2018-03-02T10:54:54.824Z,50.56
2018-03-02T10:56:15.805Z,50.27
2018-03-02T10:56:54.775Z,50.56
2018-03-02T10:57:54.774Z,50.18
2018-03-02T10:58:54.758Z,50.18
2018-03-02T10:59:54.740Z,50.09
2018-03-02T11:00:54.729Z,49.43
2018-03-02T11:02:15.757Z,50.27
2018-03-02T11:02:54.706Z,49.43
2018-03-02T11:03:54.709Z,49.99
2018-03-02T11:04:54.677Z,50.27
2018-03-02T11:05:54.667Z,49.83
2018-03-02T11:06:54.663Z,50.11
2018-03-02T11:08:15.661Z,49.83
2018-03-02T11:08:54.659Z,49.07
2018-03-02T11:09:55.582Z,49.07
2018-03-02T11:10:54.617Z,49.07
2018-03-02T11:11:54.606Z,48.60
2018-03-02T11:12:54.585Z,48.79
2018-03-02T11:14:15.579Z,48.97
2018-03-02T11:14:54.573Z,48.79
2018-03-02T11:15:54.561Z,48.50
2018-03-02T11:16:54.547Z,48.88
2018-03-02T11:17:54.529Z,48.88
2018-03-02T11:18:54.527Z,49.07
2018-03-02T11:20:15.509Z,49.07
2018-03-02T11:20:54.493Z,48.79
2018-03-02T11:21:54.490Z,48.79
2018-03-02T11:22:54.478Z,48.88
2018-03-02T11:23:54.467Z,48.97
2018-03-02T11:24:54.456Z,48.79
2018-03-02T11:26:15.439Z,48.79
2018-03-02T11:26:54.409Z,48.60
2018-03-02T11:27:54.424Z,48.88
2018-03-02T11:28:54.402Z,48.79
2018-03-02T11:29:54.391Z,48.79
2018-03-02T11:30:54.403Z,48.69
2018-03-02T11:32:15.378Z,48.50
2018-03-02T11:32:54.378Z,48.79
2018-03-02T11:33:54.358Z,48.88
2018-03-02T11:34:54.325Z,48.88
2018-03-02T11:35:54.332Z,48.79
2018-03-02T11:36:54.315Z,49.16
2018-03-02T11:38:15.299Z,49.16
2018-03-02T11:38:54.285Z,49.07
2018-03-02T11:39:54.288Z,48.88
2018-03-02T11:40:54.280Z,48.97
2018-03-02T11:41:54.259Z,49.26
2018-03-02T11:42:54.277Z,49.07
2018-03-02T11:44:15.252Z,49.16
2018-03-02T11:44:54.235Z,49.07
2018-03-02T11:45:54.232Z,48.79
2018-03-02T11:46:54.203Z,48.97
2018-03-02T11:47:54.196Z,48.88
2018-03-02T11:48:54.799Z,48.88
2018-03-02T11:50:15.168Z,48.79
2018-03-02T11:50:54.155Z,48.69
2018-03-02T11:51:54.156Z,49.16
2018-03-02T11:52:54.133Z,48.60
2018-03-02T11:53:54.111Z,48.69
2018-03-02T11:54:54.135Z,48.60
2018-03-02T11:56:15.128Z,48.97
2018-03-02T11:56:54.087Z,48.50
2018-03-02T11:57:54.080Z,48.88
2018-03-02T11:58:54.100Z,48.60
2018-03-02T11:59:54.060Z,48.97
2018-03-02T12:00:54.052Z,48.41
2018-03-02T12:02:15.032Z,48.32
2018-03-02T12:02:54.031Z,48.03
2018-03-02T12:03:54.026Z,48.32
2018-03-02T12:04:54.027Z,48.22
2018-03-02T12:05:54.003Z,48.60
2018-03-02T12:06:54.007Z,48.03
2018-03-02T12:08:14.988Z,48.69
2018-03-02T12:08:53.949Z,48.32
2018-03-02T12:09:53.928Z,48.32
2018-03-02T12:10:53.942Z,48.32
2018-03-02T12:11:53.973Z,48.32
2018-03-02T12:12:53.935Z,48.13
2018-03-02T12:14:14.902Z,48.41
2018-03-02T12:14:53.895Z,48.60
2018-03-02T12:15:53.919Z,48.79
2018-03-02T12:16:55.400Z,48.60
2018-03-02T12:17:53.861Z,48.97
2018-03-02T12:18:53.865Z,48.32
2018-03-02T12:20:14.845Z,48.41
2018-03-02T12:20:53.863Z,48.60
2018-03-02T12:21:54.411Z,48.88
2018-03-02T12:22:53.804Z,48.79
2018-03-02T12:23:53.836Z,48.79
2018-03-02T12:24:53.859Z,48.97
2018-03-02T12:26:14.809Z,48.60
2018-03-02T12:26:53.799Z,48.60
2018-03-02T12:27:53.792Z,48.97
2018-03-02T12:28:53.787Z,48.97
2018-03-02T12:29:53.745Z,48.63
2018-03-02T12:30:53.767Z,48.69
2018-03-02T12:32:14.700Z,48.63
2018-03-02T12:32:54.456Z,48.25
2018-03-02T12:33:53.704Z,47.87
2018-03-02T12:34:53.736Z,47.77
2018-03-02T12:35:53.685Z,47.87
2018-03-02T12:36:53.693Z,47.85
2018-03-02T12:38:14.644Z,47.87
2018-03-02T12:38:53.646Z,47.58
2018-03-02T12:39:53.619Z,47.87
2018-03-02T12:40:53.617Z,47.75
2018-03-02T12:41:53.596Z,47.77
2018-03-02T12:42:53.590Z,47.39
2018-03-02T12:44:14.572Z,47.96
2018-03-02T12:44:53.583Z,47.77
2018-03-02T12:45:53.578Z,48.06
2018-03-02T12:46:53.536Z,48.82
2018-03-02T12:47:53.548Z,48.25
2018-03-02T12:48:53.522Z,47.96
2018-03-02T12:50:14.525Z,47.87
2018-03-02T12:50:53.486Z,47.87
2018-03-02T12:51:53.488Z,47.39